Time;durP1;ratioP1;P1;durP2;ratioP2;P2;SDS_P1;SDS_P2;PMS_P1;PMS_P2;Temp;Humidity;BMP_temperature;BMP_pressure;BME280_temperature;BME280_humidity;BME280_pressure;Samples;Min_cycle;Max_cycle;Signal;HPM_P1;HPM_P2
2023/12/15 00:02:07;;;;;;;32.45;21.73;;;;;;;8.03;68.40;100153.06;4470592;32;34132;-78
2023/12/15 00:04:36;;;;;;;34.22;22.55;;;;;;;8.03;68.28;100158.34;4463768;32;34293;-78
2023/12/15 00:07:06;;;;;;;32.63;22.48;;;;;;;7.87;68.95;100155.69;4470359;32;35372;-79
2023/12/15 00:09:36;;;;;;;35.90;22.13;;;;;;;7.93;68.69;100151.88;4470316;32;33630;-79
2023/12/15 00:12:06;;;;;;;29.15;19.92;;;;;;;7.85;68.95;100159.37;4470177;32;34502;-78
2023/12/15 00:14:35;;;;;;;36.63;24.77;;;;;;;7.67;69.28;100170.88;4469987;32;33984;-78
2023/12/15 00:17:04;;;;;;;36.42;23.48;;;;;;;7.87;68.78;100173.31;4470557;32;34542;-78
2023/12/15 00:19:38;;;;;;;38.85;24.05;;;;;;;7.78;68.98;100171.16;4470008;32;33970;-79
2023/12/15 00:22:08;;;;;;;40.53;24.55;;;;;;;7.68;69.32;100168.19;4470188;32;34786;-79
2023/12/15 00:24:37;;;;;;;42.25;26.42;;;;;;;7.64;69.73;100174.53;4470021;32;34175;-78
2023/12/15 00:27:11;;;;;;;35.13;22.52;;;;;;;7.63;69.93;100178.94;4470188;32;34039;-79
2023/12/15 00:29:41;;;;;;;37.42;24.25;;;;;;;7.86;68.97;100177.72;4470078;32;33791;-78
2023/12/15 00:32:10;;;;;;;36.33;24.08;;;;;;;7.63;69.59;100176.31;4470485;32;34826;-78
2023/12/15 00:34:40;;;;;;;34.38;23.05;;;;;;;7.46;70.56;100186.06;4463951;32;34904;-78
2023/12/15 00:37:10;;;;;;;38.03;23.08;;;;;;;7.60;69.98;100191.44;4470039;32;34312;-79
2023/12/15 00:39:45;;;;;;;32.70;21.83;;;;;;;7.60;69.90;100191.44;4469947;32;34460;-78
2023/12/15 00:42:15;;;;;;;32.72;22.17;;;;;;;7.73;69.20;100195.16;4469998;32;33758;-79
2023/12/15 00:44:45;;;;;;;35.72;22.90;;;;;;;7.81;68.87;100197.41;4469845;32;34204;-78
2023/12/15 00:47:15;;;;;;;31.33;22.08;;;;;;;7.50;69.64;100204.25;4470322;32;34374;-79
2023/12/15 00:49:45;;;;;;;33.97;23.62;;;;;;;7.54;69.64;100203.16;4469931;32;34560;-79
2023/12/15 00:52:14;;;;;;;39.40;23.05;;;;;;;7.78;68.74;100206.31;4469998;32;33777;-79
2023/12/15 00:54:43;;;;;;;36.67;22.52;;;;;;;7.41;69.98;100211.81;4469841;32;34086;-79
2023/12/15 00:57:12;;;;;;;34.55;23.50;;;;;;;7.35;70.39;100218.22;4469659;32;34755;-78
2023/12/15 00:59:41;;;;;;;32.38;23.48;;;;;;;7.45;69.76;100219.47;4469914;32;33727;-78
2023/12/15 01:02:10;;;;;;;37.97;23.65;;;;;;;7.47;69.65;100222.88;4470300;32;33779;-78
2023/12/15 01:04:39;;;;;;;32.35;21.67;;;;;;;7.72;68.65;100233.03;4469884;32;33998;-79
2023/12/15 01:07:10;;;;;;;34.42;22.95;;;;;;;7.77;68.07;100227.50;4455714;32;35259;-78
2023/12/15 01:09:39;;;;;;;34.28;22.25;;;;;;;7.67;68.54;100231.53;4469930;32;33795;-79
2023/12/15 01:12:09;;;;;;;33.60;21.80;;;;;;;7.47;68.99;100238.69;4469895;32;34791;-78
2023/12/15 01:14:38;;;;;;;34.30;22.98;;;;;;;7.47;68.89;100235.22;4469770;32;34219;-78
2023/12/15 01:17:07;;;;;;;32.63;24.42;;;;;;;7.43;69.07;100245.06;4470087;32;34206;-79
2023/12/15 01:19:37;;;;;;;32.20;21.73;;;;;;;7.47;68.83;100248.38;4463427;32;34383;-79
2023/12/15 01:22:10;;;;;;;34.30;23.98;;;;;;;7.30;69.46;100241.34;4469607;32;33993;-79
2023/12/15 01:24:40;;;;;;;30.50;20.83;;;;;;;7.43;69.25;100249.47;4469553;32;34920;-78
2023/12/15 01:27:09;;;;;;;40.35;23.73;;;;;;;7.42;68.93;100261.81;4469682;32;34251;-79
2023/12/15 01:29:37;;;;;;;31.62;22.08;;;;;;;7.38;68.93;100260.25;4469892;32;33697;-78
2023/12/15 01:32:07;;;;;;;35.85;22.08;;;;;;;7.26;69.60;100260.87;4469954;32;33953;-79
2023/12/15 01:34:36;;;;;;;38.10;23.50;;;;;;;7.22;69.99;100256.69;4463113;32;33910;-79
2023/12/15 01:37:06;;;;;;;39.83;23.25;;;;;;;7.32;69.48;100258.75;4469720;32;34885;-79
2023/12/15 01:39:37;;;;;;;32.03;23.10;;;;;;;7.49;68.94;100265.00;4469529;32;33743;-79
2023/12/15 01:42:06;;;;;;;43.40;25.30;;;;;;;7.15;70.18;100270.16;4469627;32;34799;-79
2023/12/15 01:44:36;;;;;;;35.30;23.40;;;;;;;7.08;70.32;100276.66;4469332;32;33931;-78
2023/12/15 01:47:04;;;;;;;38.53;23.25;;;;;;;7.33;69.30;100275.47;4469880;32;34225;-79
2023/12/15 01:49:40;;;;;;;37.80;22.92;;;;;;;7.34;69.43;100275.38;4468598;32;33709;-78
2023/12/15 01:52:09;;;;;;;39.57;24.30;;;;;;;7.44;69.11;100281.03;4469378;32;33920;-79
2023/12/15 01:54:40;;;;;;;37.85;24.55;;;;;;;7.13;69.75;100276.44;4469218;32;34143;-78
2023/12/15 01:57:09;;;;;;;35.95;23.55;;;;;;;7.36;69.45;100275.28;4469325;32;34975;-79
2023/12/15 01:59:43;;;;;;;38.45;24.27;;;;;;;7.19;70.03;100278.75;4469338;32;34493;-78
2023/12/15 02:02:12;;;;;;;39.05;23.25;;;;;;;7.46;69.30;100281.81;4469659;32;34042;-79
2023/12/15 02:04:42;;;;;;;33.50;23.42;;;;;;;7.38;69.49;100276.06;4469438;32;33867;-78
2023/12/15 02:07:13;;;;;;;33.38;22.40;;;;;;;7.46;69.41;100283.59;4468667;32;34305;-78
2023/12/15 02:09:44;;;;;;;31.87;21.85;;;;;;;7.57;68.78;100281.28;4469265;32;33828;-78
2023/12/15 02:12:13;;;;;;;32.85;23.42;;;;;;;7.39;69.37;100278.63;4469219;32;35389;-79
2023/12/15 02:14:43;;;;;;;36.17;23.12;;;;;;;7.45;69.23;100292.44;4469070;32;34196;-78
2023/12/15 02:17:13;;;;;;;30.58;21.95;;;;;;;7.71;68.14;100280.56;4469513;32;34110;-79
2023/12/15 02:19:42;;;;;;;36.40;23.73;;;;;;;7.60;68.22;100284.63;4469023;32;33747;-79
2023/12/15 02:22:11;;;;;;;35.10;24.25;;;;;;;7.68;68.20;100289.50;4469181;32;34625;-79
2023/12/15 02:24:41;;;;;;;36.22;22.10;;;;;;;7.46;68.94;100295.00;4468879;32;34840;-78
2023/12/15 02:27:13;;;;;;;30.40;20.65;;;;;;;7.30;69.80;100287.00;4469061;32;34331;-79
2023/12/15 02:29:42;;;;;;;33.63;23.42;;;;;;;7.51;68.95;100284.22;4468927;32;33885;-78
2023/12/15 02:32:12;;;;;;;34.15;21.40;;;;;;;7.30;69.74;100292.28;4469264;32;34677;-79
2023/12/15 02:34:41;;;;;;;31.23;22.65;;;;;;;7.00;71.08;100284.06;4468706;32;35051;-78
2023/12/15 02:37:10;;;;;;;31.85;20.25;;;;;;;6.96;71.61;100293.06;4468875;32;34062;-79
2023/12/15 02:39:40;;;;;;;32.78;22.02;;;;;;;7.33;70.02;100283.38;4468790;32;34311;-79
2023/12/15 02:42:10;;;;;;;36.45;23.08;;;;;;;7.71;68.80;100304.31;4468769;32;34082;-78
2023/12/15 02:44:39;;;;;;;30.23;20.33;;;;;;;7.10;70.69;100303.78;4468451;32;33997;-78
2023/12/15 02:47:09;;;;;;;35.10;23.27;;;;;;;7.19;70.54;100313.03;4469009;32;34186;-79
2023/12/15 02:49:39;;;;;;;33.38;22.45;;;;;;;6.89;71.47;100300.41;4468739;32;34528;-79
2023/12/15 02:52:08;;;;;;;38.38;24.70;;;;;;;7.31;70.38;100315.06;4468556;32;34219;-79
2023/12/15 02:54:38;;;;;;;32.28;21.80;;;;;;;7.17;70.63;100307.00;4468640;32;35303;-79
2023/12/15 02:57:07;;;;;;;32.40;21.00;;;;;;;7.33;70.22;100315.84;4468564;32;34502;-79
2023/12/15 02:59:37;;;;;;;34.05;22.33;;;;;;;7.07;71.02;100311.84;4468485;32;33772;-78
2023/12/15 03:02:06;;;;;;;30.12;19.65;;;;;;;7.23;70.18;100319.00;4468821;32;34687;-79
2023/12/15 03:04:36;;;;;;;35.03;21.87;;;;;;;7.65;68.74;100326.56;4468433;32;33952;-79
2023/12/15 03:07:05;;;;;;;30.67;21.80;;;;;;;7.39;69.87;100309.41;4468422;32;34737;-78
2023/12/15 03:09:36;;;;;;;31.77;20.83;;;;;;;7.45;69.58;100324.09;4468440;32;34313;-79
2023/12/15 03:12:05;;;;;;;29.20;19.48;;;;;;;7.31;70.14;100330.03;4468474;32;34811;-79
2023/12/15 03:14:36;;;;;;;33.42;22.08;;;;;;;7.25;70.38;100333.81;4468263;32;34258;-79
2023/12/15 03:17:06;;;;;;;33.10;20.20;;;;;;;7.02;71.41;100331.44;4454625;32;33402;-79
2023/12/15 03:19:39;;;;;;;38.22;22.65;;;;;;;7.46;69.57;100329.28;4468753;32;34463;-79
2023/12/15 03:22:08;;;;;;;37.35;22.40;;;;;;;7.38;70.14;100337.56;4470477;32;34334;-79
2023/12/15 03:24:37;;;;;;;30.12;21.37;;;;;;;7.45;69.73;100340.75;4470416;32;34292;-79
2023/12/15 03:27:06;;;;;;;31.80;20.50;;;;;;;7.42;69.96;100345.31;4470421;32;34251;-79
2023/12/15 03:29:37;;;;;;;34.72;21.73;;;;;;;7.47;69.60;100359.97;4470492;32;33853;-78
2023/12/15 03:32:07;;;;;;;34.30;20.80;;;;;;;7.28;70.37;100354.75;4470852;32;34012;-79
2023/12/15 03:34:36;;;;;;;30.15;18.92;;;;;;;7.34;70.01;100356.25;4465471;32;155854;-78
2023/12/15 03:37:05;;;;;;;28.10;18.92;;;;;;;7.18;70.83;100357.91;4470337;32;33856;-79
2023/12/15 03:39:36;;;;;;;27.95;19.12;;;;;;;7.19;70.60;100372.78;4470489;32;34390;-79
2023/12/15 03:42:08;;;;;;;33.30;19.17;;;;;;;7.55;69.47;100368.38;4470355;32;34655;-78
2023/12/15 03:44:39;;;;;;;30.85;19.92;;;;;;;7.66;69.04;100386.31;4470223;32;33563;-78
2023/12/15 03:47:11;;;;;;;31.20;20.98;;;;;;;7.13;70.83;100379.22;4470674;32;34156;-79
2023/12/15 03:49:41;;;;;;;29.35;21.25;;;;;;;7.16;70.89;100394.84;4470361;32;33985;-79
2023/12/15 03:52:11;;;;;;;33.38;21.05;;;;;;;7.22;70.42;100378.78;4470339;32;34976;-79
2023/12/15 03:54:40;;;;;;;33.90;22.20;;;;;;;7.24;70.29;100384.81;4470099;32;33954;-78
2023/12/15 03:57:09;;;;;;;31.10;21.40;;;;;;;7.28;70.13;100380.25;4470302;32;34048;-79
2023/12/15 03:59:40;;;;;;;32.63;20.25;;;;;;;7.07;70.77;100397.94;4470152;32;33615;-79
2023/12/15 04:02:14;;;;;;;31.95;21.00;;;;;;;7.16;70.43;100397.50;4470388;32;34030;-79
2023/12/15 04:04:44;;;;;;;30.40;20.17;;;;;;;6.92;71.13;100404.75;4470113;32;34019;-78
2023/12/15 04:07:13;;;;;;;32.40;20.50;;;;;;;6.94;71.03;100407.34;4470352;32;35060;-79
2023/12/15 04:09:43;;;;;;;32.10;20.50;;;;;;;7.08;70.52;100405.75;4470330;32;33804;-78
2023/12/15 04:12:12;;;;;;;27.20;18.20;;;;;;;7.13;70.38;100410.84;4470236;32;33828;-79
2023/12/15 04:14:43;;;;;;;32.05;20.05;;;;;;;7.05;70.62;100407.72;4470013;32;34825;-78
2023/12/15 04:17:12;;;;;;;32.35;20.30;;;;;;;7.07;70.53;100406.69;4470558;32;34860;-78
2023/12/15 04:19:41;;;;;;;28.30;18.08;;;;;;;6.80;71.56;100407.97;4470324;32;34124;-79
2023/12/15 04:22:11;;;;;;;28.58;18.20;;;;;;;6.65;72.00;100410.37;4470124;32;33687;-79
2023/12/15 04:24:46;;;;;;;30.60;18.90;;;;;;;6.71;71.84;100409.25;4469909;32;33867;-78
2023/12/15 04:27:16;;;;;;;28.33;19.70;;;;;;;6.78;71.64;100423.84;4470012;32;34161;-79
2023/12/15 04:29:47;;;;;;;27.67;18.70;;;;;;;6.60;72.17;100432.56;4470126;32;33808;-79
2023/12/15 04:32:16;;;;;;;26.60;19.08;;;;;;;6.67;72.06;100423.47;4469987;32;34221;-79
2023/12/15 04:34:45;;;;;;;31.70;18.55;;;;;;;6.77;71.61;100434.44;4470147;32;33963;-78
2023/12/15 04:37:15;;;;;;;29.23;18.62;;;;;;;6.87;71.22;100433.09;4470121;32;34237;-79
2023/12/15 04:39:46;;;;;;;28.92;18.62;;;;;;;6.91;70.95;100442.59;4470200;32;34336;-78
2023/12/15 04:42:16;;;;;;;30.90;18.67;;;;;;;6.86;71.15;100452.47;4469979;32;33958;-78
2023/12/15 04:44:46;;;;;;;27.02;19.12;;;;;;;6.81;71.36;100457.97;4469762;32;33997;-78
2023/12/15 04:47:16;;;;;;;28.85;18.62;;;;;;;6.75;71.40;100457.37;4470354;32;34166;-79
2023/12/15 04:49:46;;;;;;;24.90;16.70;;;;;;;6.83;71.10;100461.38;4470073;32;47844;-79
2023/12/15 04:52:15;;;;;;;29.67;18.55;;;;;;;6.76;71.24;100465.19;4455715;32;32383;-79
2023/12/15 04:54:44;;;;;;;26.30;18.00;;;;;;;6.69;71.44;100462.91;4469817;32;34123;-79
2023/12/15 04:57:14;;;;;;;25.67;17.73;;;;;;;6.76;71.08;100475.72;4469953;32;34167;-79
2023/12/15 04:59:43;;;;;;;25.73;18.23;;;;;;;6.76;71.21;100472.25;4469835;32;33834;-79
2023/12/15 05:02:17;;;;;;;31.12;17.90;;;;;;;6.77;71.28;100479.22;4470230;32;34523;-78
2023/12/15 05:04:46;;;;;;;24.45;17.23;;;;;;;6.65;71.58;100478.84;4454055;32;48314;-79
2023/12/15 05:07:15;;;;;;;27.40;17.23;;;;;;;6.81;70.93;100476.41;4454403;32;34193;-78
2023/12/15 05:09:48;;;;;;;27.67;18.63;;;;;;;6.70;71.15;100486.53;4454312;32;33809;-78
2023/12/15 05:12:35;;;;;;;26.12;16.45;;;;;;;6.77;70.90;100479.22;4454280;32;34484;-79
2023/12/15 05:15:05;;;;;;;23.25;16.10;;;;;;;6.72;71.19;100489.09;4453986;32;34179;-79
2023/12/15 05:17:36;;;;;;;23.90;17.70;;;;;;;6.74;70.99;100482.84;4454224;32;34179;-78
2023/12/15 05:20:08;;;;;;;23.90;16.27;;;;;;;6.92;70.17;100493.47;4454599;32;33898;-78
2023/12/15 05:22:37;;;;;;;24.00;16.40;;;;;;;6.72;70.86;100489.09;4447854;32;35203;-79
2023/12/15 05:25:08;;;;;;;20.08;15.18;;;;;;;6.80;70.50;100497.53;4454092;32;33979;-79
2023/12/15 05:27:38;;;;;;;25.02;15.98;;;;;;;7.04;69.67;100509.59;4454145;32;34893;-79
2023/12/15 05:30:08;;;;;;;18.98;13.35;;;;;;;6.80;70.15;100508.06;4454090;32;33858;-79
2023/12/15 05:32:40;;;;;;;23.33;14.30;;;;;;;6.88;70.02;100516.47;4454151;32;33909;-78
2023/12/15 05:35:10;;;;;;;17.80;13.10;;;;;;;6.74;70.02;100516.25;4454213;32;34841;-79
2023/12/15 05:37:39;;;;;;;22.40;13.90;;;;;;;6.85;69.62;100525.37;4454069;32;34350;-78
2023/12/15 05:40:11;;;;;;;21.75;14.50;;;;;;;7.11;68.73;100531.25;4454071;32;33767;-79
2023/12/15 05:42:41;;;;;;;21.60;14.10;;;;;;;7.12;68.60;100536.44;4452785;32;34502;-79
2023/12/15 05:45:11;;;;;;;23.12;15.02;;;;;;;7.03;68.81;100536.88;4453729;32;34254;-78
2023/12/15 05:47:42;;;;;;;21.20;14.18;;;;;;;7.00;68.70;100547.53;4453984;32;34208;-78
2023/12/15 05:50:12;;;;;;;24.15;15.77;;;;;;;7.09;68.45;100555.06;4454335;32;34726;-79
2023/12/15 05:52:42;;;;;;;25.60;15.55;;;;;;;7.25;67.69;100554.38;4469179;32;34586;-79
2023/12/15 05:55:11;;;;;;;19.02;13.15;;;;;;;7.22;67.89;100568.53;4469353;32;33873;-79
2023/12/15 05:57:40;;;;;;;20.23;11.65;;;;;;;7.23;67.74;100566.75;4469756;32;34715;-79
2023/12/15 06:00:16;;;;;;;14.30;11.90;;;;;;;7.50;66.44;100554.97;4469440;32;33623;-79
2023/12/15 06:02:46;;;;;;;14.80;11.27;;;;;;;6.92;68.49;100559.34;4469200;32;33882;-78
2023/12/15 06:05:16;;;;;;;15.68;11.25;;;;;;;7.11;67.49;100573.44;4455351;32;32405;-79
2023/12/15 06:07:49;;;;;;;18.15;11.82;;;;;;;7.12;67.30;100568.06;4469252;32;48935;-78
2023/12/15 06:10:18;;;;;;;14.00;10.38;;;;;;;7.20;67.28;100573.00;4469431;32;33667;-79
2023/12/15 06:12:47;;;;;;;18.20;12.75;;;;;;;7.30;66.77;100576.09;4469024;32;34021;-79
2023/12/15 06:15:16;;;;;;;18.80;15.13;;;;;;;7.02;67.39;100571.22;4469156;32;34846;-79
2023/12/15 06:17:47;;;;;;;19.17;14.68;;;;;;;6.98;67.67;100590.72;4469229;32;34869;-79
2023/12/15 06:20:17;;;;;;;15.30;11.38;;;;;;;6.88;67.75;100584.97;4469510;32;33769;-79
2023/12/15 06:22:46;;;;;;;18.83;13.20;;;;;;;6.95;67.78;100601.38;4469110;32;49236;-79
2023/12/15 06:25:23;;;;;;;13.73;11.07;;;;;;;6.94;67.54;100603.16;4468927;32;34191;-78
2023/12/15 06:27:52;;;;;;;14.77;10.18;;;;;;;7.11;67.10;100612.97;4469177;32;34585;-78
2023/12/15 06:30:21;;;;;;;15.70;10.75;;;;;;;7.04;67.21;100611.50;4454844;32;32177;-78
2023/12/15 06:32:52;;;;;;;15.25;10.10;;;;;;;7.00;67.17;100617.81;4469074;32;33911;-79
2023/12/15 06:35:24;;;;;;;11.80;8.63;;;;;;;7.25;66.44;100625.56;4468738;32;34062;-79
2023/12/15 06:37:53;;;;;;;12.23;8.25;;;;;;;7.12;66.60;100631.31;4469234;32;34959;-79
2023/12/15 06:40:22;;;;;;;17.58;11.82;;;;;;;6.85;67.43;100629.87;4469242;32;34652;-79
2023/12/15 06:42:51;;;;;;;16.98;11.27;;;;;;;7.03;67.06;100629.09;4468973;32;33862;-79
2023/12/15 06:45:20;;;;;;;16.27;10.85;;;;;;;6.88;67.58;100641.13;4468769;32;33875;-78
2023/12/15 06:47:50;;;;;;;13.60;10.25;;;;;;;7.04;67.03;100640.50;4454510;32;35303;-78
2023/12/15 06:50:20;;;;;;;12.77;9.35;;;;;;;6.92;67.20;100643.66;4469092;32;33936;-78
2023/12/15 06:52:51;;;;;;;11.27;8.75;;;;;;;6.98;66.99;100652.16;4468722;32;49269;-78
2023/12/15 06:55:20;;;;;;;13.45;10.32;;;;;;;6.72;67.63;100658.50;4470392;32;34063;-78
2023/12/15 06:57:49;;;;;;;20.52;15.63;;;;;;;6.62;68.13;100676.47;4470644;32;34806;-78
2023/12/15 07:00:23;;;;;;;14.98;12.23;;;;;;;6.79;67.38;100677.56;4470876;32;34478;-78
2023/12/15 07:02:52;;;;;;;13.38;10.60;;;;;;;6.96;66.99;100690.87;4470488;32;34159;-78
2023/12/15 07:05:22;;;;;;;12.85;10.90;;;;;;;6.89;66.93;100692.06;4470358;32;34902;-77
2023/12/15 07:07:52;;;;;;;13.30;10.50;;;;;;;7.02;66.75;100695.91;4470933;32;34209;-78
2023/12/15 07:10:21;;;;;;;14.73;11.30;;;;;;;7.11;66.18;100699.91;4470883;32;33667;-78
2023/12/15 07:12:50;;;;;;;13.45;10.02;;;;;;;6.99;66.68;100713.62;4470469;32;34238;-78
2023/12/15 07:15:19;;;;;;;13.48;10.50;;;;;;;7.00;66.55;100716.16;4456254;32;34382;-78
2023/12/15 07:17:48;;;;;;;11.95;8.98;;;;;;;6.81;67.19;100717.84;4470530;32;34131;-78
2023/12/15 07:23:02;;;;;;;12.30;9.65;;;;;;;6.97;66.74;100715.44;4470805;32;34327;-78
2023/12/15 07:25:31;;;;;;;14.40;10.50;;;;;;;6.84;66.70;100723.00;4470058;32;34063;-78
2023/12/15 07:28:00;;;;;;;17.65;12.30;;;;;;;6.69;67.22;100728.87;4470562;32;34148;-78
2023/12/15 07:30:29;;;;;;;15.20;10.43;;;;;;;6.88;67.01;100741.25;4470222;32;33598;-78
2023/12/15 07:32:59;;;;;;;12.70;8.45;;;;;;;6.94;66.35;100745.41;4470333;32;33811;-77
2023/12/15 07:35:30;;;;;;;12.73;8.85;;;;;;;6.59;66.86;100752.09;4470132;32;34087;-77
2023/12/15 07:38:01;;;;;;;14.00;9.57;;;;;;;6.80;66.59;100750.38;4470783;32;34836;-78
2023/12/15 07:40:31;;;;;;;12.35;8.75;;;;;;;6.80;66.66;100753.88;4470522;32;33668;-78
2023/12/15 07:43:00;;;;;;;12.55;9.40;;;;;;;6.82;66.52;100759.09;4470427;32;34646;-78
2023/12/15 07:45:29;;;;;;;15.15;10.45;;;;;;;6.98;66.05;100762.81;4470435;32;34184;-78
2023/12/15 07:47:58;;;;;;;14.25;10.70;;;;;;;6.70;67.06;100767.50;4470250;32;34436;-77
2023/12/15 07:50:27;;;;;;;14.68;9.43;;;;;;;7.21;65.56;100768.94;4470214;32;33568;-77
2023/12/15 07:53:01;;;;;;;11.10;7.37;;;;;;;7.27;65.27;100780.06;4470738;32;33797;-78
2023/12/15 07:55:30;;;;;;;12.05;7.47;;;;;;;7.48;64.76;100783.56;4470197;32;34685;-78
2023/12/15 07:57:59;;;;;;;12.07;7.87;;;;;;;7.32;64.26;100785.13;4470228;32;34272;-78
2023/12/15 08:00:33;;;;;;;12.95;8.10;;;;;;;7.30;64.42;100790.50;4470407;32;34687;-78
2023/12/15 08:03:16;;;;;;;7.90;6.60;;;;;;;7.46;64.07;100797.75;4470287;32;34424;-79
2023/12/15 08:05:45;;;;;;;9.80;6.87;;;;;;;7.69;63.87;100804.69;4469402;32;34079;-77
2023/12/15 08:08:16;;;;;;;8.63;7.18;;;;;;;7.96;62.86;100811.41;4456478;32;33422;-78
2023/12/15 08:10:45;;;;;;;9.68;7.15;;;;;;;7.79;63.48;100822.69;4470230;32;34430;-78
2023/12/15 08:13:14;;;;;;;17.42;11.38;;;;;;;7.98;62.68;100825.41;4470275;32;33897;-79
2023/12/15 08:15:43;;;;;;;8.77;7.12;;;;;;;8.14;61.91;100821.16;4470113;32;34105;-79
2023/12/15 08:18:12;;;;;;;11.50;6.37;;;;;;;7.85;62.79;100833.00;4470250;32;34288;-78
2023/12/15 08:20:45;;;;;;;9.15;7.10;;;;;;;8.15;68.21;100835.19;4470277;32;33641;-78
2023/12/15 08:23:16;;;;;;;10.25;8.43;;;;;;;8.29;67.23;100845.16;4470458;32;34690;-78
2023/12/15 08:25:45;;;;;;;10.25;7.72;;;;;;;8.28;62.00;100840.81;4469821;32;33784;-78
2023/12/15 08:28:14;;;;;;;12.88;8.80;;;;;;;8.00;62.58;100846.44;4470048;32;34201;-78
2023/12/15 08:30:44;;;;;;;10.57;7.57;;;;;;;7.68;63.30;100853.09;4470368;32;33726;-78
2023/12/15 08:33:16;;;;;;;11.52;7.50;;;;;;;7.48;63.72;100846.84;4470227;32;34262;-78
2023/12/15 08:35:46;;;;;;;10.40;8.05;;;;;;;7.40;64.47;100854.22;4469868;32;33965;-77
2023/12/15 08:38:17;;;;;;;11.85;9.23;;;;;;;7.36;64.11;100857.91;4470551;32;34904;-78
2023/12/15 08:40:46;;;;;;;15.80;9.00;;;;;;;7.34;63.89;100857.97;4469950;32;47540;-79
2023/12/15 08:43:15;;;;;;;14.05;9.85;;;;;;;7.40;64.27;100867.41;4470180;32;33871;-78
2023/12/15 08:45:45;;;;;;;10.75;8.18;;;;;;;7.38;64.27;100877.19;4469800;32;33920;-78
2023/12/15 08:48:14;;;;;;;14.27;8.48;;;;;;;7.46;63.85;100888.28;4470055;32;34684;-79
2023/12/15 08:50:43;;;;;;;12.88;8.93;;;;;;;7.30;64.49;100885.41;4470137;32;33851;-79
2023/12/15 08:53:15;;;;;;;11.15;7.45;;;;;;;7.14;64.78;100890.41;4470278;32;34683;-78
2023/12/15 08:55:45;;;;;;;10.40;8.75;;;;;;;7.41;63.98;100886.75;4469815;32;34708;-78
2023/12/15 08:58:15;;;;;;;11.50;8.40;;;;;;;7.30;64.27;100895.09;4469941;32;34854;-78
2023/12/15 09:00:45;;;;;;;10.35;8.73;;;;;;;7.22;64.52;100894.53;4469865;32;33787;-78
2023/12/15 09:03:15;;;;;;;9.88;8.20;;;;;;;7.17;64.48;100905.25;4469940;32;33950;-78
2023/12/15 09:05:47;;;;;;;11.15;7.97;;;;;;;7.34;64.21;100908.06;4469612;32;34907;-78
2023/12/15 09:08:36;;;;;;;14.02;8.43;;;;;;;7.38;64.07;100917.59;4469749;32;34263;-78
2023/12/15 09:11:08;;;;;;;12.18;8.27;;;;;;;7.39;64.07;100923.72;4470241;32;34394;-78
2023/12/15 09:13:41;;;;;;;12.32;8.25;;;;;;;7.45;63.92;100936.66;4469943;32;34830;-78
2023/12/15 09:16:11;;;;;;;12.50;7.72;;;;;;;7.34;64.29;100941.50;4469722;32;34233;-78
2023/12/15 09:18:40;;;;;;;11.82;8.48;;;;;;;7.59;63.30;100944.88;4469720;32;34164;-78
2023/12/15 09:21:09;;;;;;;10.98;8.25;;;;;;;7.57;63.31;100948.50;4469813;32;33877;-79
2023/12/15 09:23:42;;;;;;;9.18;7.75;;;;;;;7.72;62.98;100950.53;4469957;32;33792;-79
2023/12/15 09:26:13;;;;;;;10.95;8.05;;;;;;;7.72;62.87;100953.16;4470394;32;33857;-79
2023/12/15 09:28:42;;;;;;;11.32;7.97;;;;;;;7.82;62.38;100951.00;4469999;32;35103;-79
2023/12/15 09:31:12;;;;;;;13.60;10.13;;;;;;;7.56;63.18;100954.66;4470070;32;33511;-78
2023/12/15 09:33:42;;;;;;;13.32;9.35;;;;;;;7.73;62.45;100959.28;4469791;32;33877;-78
2023/12/15 09:36:12;;;;;;;14.77;10.30;;;;;;;7.60;62.89;100966.81;4469380;32;33979;-79
2023/12/15 09:38:41;;;;;;;13.35;10.23;;;;;;;7.64;63.07;100973.69;4455411;32;35565;-79
2023/12/15 09:41:17;;;;;;;13.50;9.20;;;;;;;7.70;63.05;100975.25;4469990;32;33579;-78
2023/12/15 09:43:47;;;;;;;15.82;9.13;;;;;;;7.61;63.30;100979.97;4469466;32;49311;-78
2023/12/15 09:46:17;;;;;;;12.65;9.10;;;;;;;7.79;62.78;100980.13;4469473;32;34924;-78
2023/12/15 09:48:47;;;;;;;14.30;8.73;;;;;;;7.82;62.35;100980.88;4469500;32;34900;-78
2023/12/15 09:51:22;;;;;;;15.55;9.25;;;;;;;7.69;62.81;100992.84;4469487;32;33721;-79
2023/12/15 09:53:53;;;;;;;11.57;7.87;;;;;;;7.80;62.56;100989.75;4469286;32;34891;-78
2023/12/15 09:56:24;;;;;;;16.20;10.70;;;;;;;7.79;62.41;100986.25;4468987;32;33951;-78
2023/12/15 09:58:54;;;;;;;12.10;9.05;;;;;;;7.88;62.21;100988.56;4469601;32;35454;-79
2023/12/15 10:01:24;;;;;;;13.18;9.13;;;;;;;7.54;62.74;100996.09;4469309;32;34479;-79
2023/12/15 10:03:55;;;;;;;17.83;10.23;;;;;;;7.78;62.45;101000.38;4469017;32;34285;-78
2023/12/15 10:06:25;;;;;;;9.88;8.20;;;;;;;7.73;62.44;100994.44;4468925;32;33958;-78
2023/12/15 10:08:54;;;;;;;18.05;9.63;;;;;;;7.55;62.46;100998.66;4454942;32;32686;-78
2023/12/15 10:11:34;;;;;;;12.50;9.25;;;;;;;8.06;61.31;100999.25;4468994;32;34427;-78
2023/12/15 10:14:07;;;;;;;14.63;9.98;;;;;;;7.98;61.55;101002.22;4469341;32;34830;-78
2023/12/15 10:16:36;;;;;;;16.70;10.93;;;;;;;8.12;61.00;101014.88;4469001;32;33733;-78
2023/12/15 10:19:10;;;;;;;11.73;8.95;;;;;;;8.01;61.12;101023.22;4469041;32;34291;-78
2023/12/15 10:21:40;;;;;;;12.90;8.80;;;;;;;8.17;60.72;101020.81;4468936;32;33679;-78
2023/12/15 10:24:20;;;;;;;12.23;9.73;;;;;;;8.14;60.51;101021.78;4468922;32;33937;-78
2023/12/15 10:26:51;;;;;;;12.80;8.63;;;;;;;8.11;60.46;101027.19;4468788;32;34384;-78
2023/12/15 10:29:21;;;;;;;15.02;9.63;;;;;;;8.10;60.42;101020.19;4471897;32;34143;-78
2023/12/15 10:31:51;;;;;;;14.63;10.05;;;;;;;8.14;60.25;101019.13;4474009;32;49108;-78
2023/12/15 10:34:23;;;;;;;15.50;10.95;;;;;;;8.33;60.33;101026.31;4474026;32;33809;-78
2023/12/15 10:36:53;;;;;;;11.77;8.87;;;;;;;8.53;59.30;101023.69;4473832;32;35807;-79
2023/12/15 10:39:24;;;;;;;12.10;7.70;;;;;;;8.04;60.51;101031.00;4473867;32;34342;-79
2023/12/15 10:41:56;;;;;;;12.02;8.02;;;;;;;8.48;59.40;101038.03;4473940;32;33589;-78
2023/12/15 10:44:33;;;;;;;12.40;9.40;;;;;;;8.46;59.81;101047.81;4473855;32;34944;-78
2023/12/15 10:47:04;;;;;;;11.88;9.13;;;;;;;8.30;59.72;101043.13;4459981;32;32586;-79
2023/12/15 10:49:39;;;;;;;14.15;10.57;;;;;;;8.47;59.27;101045.09;4473798;32;34186;-78
2023/12/15 10:52:21;;;;;;;10.57;8.05;;;;;;;8.73;59.06;101043.97;4474002;32;34488;-79
2023/12/15 10:54:52;;;;;;;13.43;9.23;;;;;;;8.76;58.80;101051.78;4473631;32;33901;-78
2023/12/15 10:57:23;;;;;;;10.18;7.28;;;;;;;8.89;58.57;101049.47;4473685;32;34850;-78
2023/12/15 10:59:54;;;;;;;13.75;9.10;;;;;;;8.95;58.53;101057.13;4473741;32;34957;-79
2023/12/15 11:02:23;;;;;;;15.57;11.02;;;;;;;8.91;58.08;101049.38;4473556;32;33853;-79
2023/12/15 11:04:59;;;;;;;20.62;15.65;;;;;;;8.69;58.50;101047.69;4473985;32;34655;-79
2023/12/15 11:07:29;;;;;;;18.67;13.48;;;;;;;8.66;58.63;101061.00;4473804;32;34917;-79
2023/12/15 11:09:59;;;;;;;15.20;11.02;;;;;;;8.73;58.64;101058.97;4459413;32;34546;-79
2023/12/15 11:12:37;;;;;;;12.95;9.57;;;;;;;9.09;57.61;101064.44;4473749;32;33714;-79
2023/12/15 11:15:14;;;;;;;11.68;8.00;;;;;;;9.07;57.74;101061.88;4473627;32;34873;-78
2023/12/15 11:17:44;;;;;;;15.18;10.60;;;;;;;9.21;57.42;101063.03;4474112;32;34717;-78
2023/12/15 11:20:39;;;;;;;18.50;13.07;;;;;;;9.41;56.88;101067.41;4473718;32;34425;-79
2023/12/15 11:23:11;;;;;;;14.07;9.52;;;;;;;9.05;57.57;101073.44;4473736;32;48925;-79
2023/12/15 11:25:53;;;;;;;;;;;;;;;9.35;56.66;101084.44;4473650;32;33994;-78
2023/12/15 11:28:23;;;;;;;13.60;10.75;;;;;;;9.30;56.52;101083.75;4473607;32;34564;-78
2023/12/15 11:30:53;;;;;;;16.23;11.68;;;;;;;8.74;58.06;101085.31;4473562;32;34803;-78
2023/12/15 11:33:41;;;;;;;17.40;12.75;;;;;;;8.74;58.16;101085.31;4473180;32;34441;-78
2023/12/15 11:36:13;;;;;;;15.75;9.85;;;;;;;8.85;57.70;101080.44;4473211;32;33934;-78
2023/12/15 11:38:48;;;;;;;18.80;13.32;;;;;;;8.70;58.35;101086.38;4473183;32;35045;-78